createdAt,value
2018-06-05T00:00:34.974Z,13.83
2018-06-05T00:03:04.067Z,9.97
2018-06-05T00:05:33.240Z,9.87
2018-06-05T00:08:02.287Z,10.57
2018-06-05T00:10:31.275Z,10.70
2018-06-05T00:13:00.238Z,11.20
2018-06-05T00:15:29.370Z,9.83
2018-06-05T00:17:58.546Z,12.83
2018-06-05T00:20:27.984Z,10.47
2018-06-05T00:22:56.960Z,12.03
2018-06-05T00:25:26.151Z,10.53
2018-06-05T00:27:55.189Z,12.87
2018-06-05T00:30:24.309Z,10.47
2018-06-05T00:32:53.338Z,10.47
2018-06-05T00:35:22.920Z,12.33
2018-06-05T00:37:52.080Z,13.43
2018-06-05T00:40:21.119Z,9.47
2018-06-05T00:42:50.693Z,10.17
2018-06-05T00:45:19.624Z,10.10
2018-06-05T00:47:48.734Z,11.43
2018-06-05T00:50:17.912Z,8.67
2018-06-05T00:52:47.038Z,11.37
2018-06-05T00:55:16.019Z,11.37
2018-06-05T00:57:45.196Z,10.43
2018-06-05T01:00:14.178Z,9.47
2018-06-05T01:02:43.380Z,8.40
2018-06-05T01:05:12.473Z,7.73
2018-06-05T01:07:41.555Z,8.10
2018-06-05T01:10:10.560Z,8.70
2018-06-05T01:12:40.221Z,8.50
2018-06-05T01:15:09.214Z,10.13
2018-06-05T01:17:38.249Z,8.20
2018-06-05T01:20:07.932Z,7.73
2018-06-05T01:22:36.832Z,7.43
2018-06-05T01:25:05.950Z,11.13
2018-06-05T01:27:35.372Z,8.10
2018-06-05T01:30:04.427Z,7.70
2018-06-05T01:32:33.459Z,9.37
2018-06-05T01:35:02.986Z,7.37
2018-06-05T01:37:32.013Z,7.20
2018-06-05T01:40:01.134Z,7.43
2018-06-05T01:42:30.665Z,6.03
2018-06-05T01:44:59.699Z,8.93
2018-06-05T01:47:28.838Z,7.03
2018-06-05T01:49:57.988Z,7.00
2018-06-05T01:52:27.021Z,8.73
2018-06-05T01:54:56.155Z,7.10
2018-06-05T01:57:25.528Z,7.80
2018-06-05T01:59:54.607Z,6.90
2018-06-05T02:02:23.523Z,12.33
2018-06-05T02:04:52.983Z,10.83
2018-06-05T02:07:22.106Z,9.57
2018-06-05T02:09:51.108Z,8.97
2018-06-05T02:12:20.100Z,7.70
2018-06-05T02:14:49.046Z,9.17
2018-06-05T02:17:18.111Z,8.23
2018-06-05T02:19:47.156Z,11.33
2018-06-05T02:22:16.127Z,6.60
2018-06-05T02:24:45.116Z,6.70
2018-06-05T02:27:14.044Z,7.10
2018-06-05T02:29:43.390Z,8.73
2018-06-05T02:32:12.431Z,12.00
2018-06-05T02:34:41.419Z,6.87
2018-06-05T02:37:10.510Z,10.93
2018-06-05T02:39:39.482Z,11.40
2018-06-05T02:42:08.476Z,7.93
2018-06-05T02:44:37.879Z,7.17
2018-06-05T02:47:06.891Z,10.27
2018-06-05T02:49:35.911Z,7.20
2018-06-05T02:52:05.379Z,7.43
2018-06-05T02:54:34.280Z,10.67
2018-06-05T02:57:03.217Z,7.37
2018-06-05T02:59:32.799Z,8.40
2018-06-05T03:02:01.824Z,9.27
2018-06-05T03:04:30.876Z,8.20
2018-06-05T03:07:00.323Z,9.27
2018-06-05T03:09:29.278Z,9.20
2018-06-05T03:11:58.444Z,11.13
2018-06-05T03:14:27.997Z,8.90
2018-06-05T03:16:57.013Z,8.87
2018-06-05T03:19:26.016Z,9.30
2018-06-05T03:21:55.031Z,9.87
2018-06-05T03:24:24.121Z,12.60
2018-06-05T03:26:53.122Z,8.90
2018-06-05T03:29:22.332Z,8.50
2018-06-05T03:31:51.348Z,10.60
2018-06-05T03:34:20.495Z,32.70
2018-06-05T03:36:50.247Z,11.60
2018-06-05T03:39:19.188Z,14.30
2018-06-05T03:41:48.336Z,13.07
2018-06-05T03:44:17.943Z,10.80
2018-06-05T03:46:46.913Z,11.60
2018-06-05T03:49:16.747Z,10.60
2018-06-05T03:51:46.099Z,11.53
2018-06-05T03:54:15.167Z,12.97
2018-06-05T03:56:44.170Z,12.07
2018-06-05T03:59:13.267Z,11.43
2018-06-05T04:01:42.233Z,9.30
2018-06-05T04:04:11.174Z,10.10
2018-06-05T04:06:40.338Z,13.60
2018-06-05T04:09:09.446Z,10.30
2018-06-05T04:11:38.420Z,10.20
2018-06-05T04:14:07.992Z,11.73
2018-06-05T04:16:37.036Z,13.53
2018-06-05T04:19:06.239Z,13.25
2018-06-05T04:21:35.215Z,14.18
2018-06-05T04:24:04.310Z,12.13
2018-06-05T04:26:33.511Z,13.38
2018-06-05T04:29:02.514Z,12.65
2018-06-05T04:31:31.649Z,11.70
2018-06-05T04:34:00.716Z,9.58
2018-06-05T04:36:30.375Z,14.47
2018-06-05T04:38:59.401Z,9.53
2018-06-05T04:41:28.388Z,13.75
2018-06-05T04:43:57.810Z,13.50
2018-06-05T04:46:26.782Z,12.35
2018-06-05T04:48:55.963Z,13.38
2018-06-05T04:51:25.303Z,11.73
2018-06-05T04:53:54.278Z,10.48
2018-06-05T04:56:23.408Z,11.30
2018-06-05T04:58:52.982Z,13.32
2018-06-05T05:01:21.896Z,9.73
2018-06-05T05:03:50.992Z,11.55
2018-06-05T05:06:20.040Z,11.68
2018-06-05T05:08:49.083Z,9.73
2018-06-05T05:11:18.642Z,12.10
2018-06-05T05:13:48.145Z,9.70
2018-06-05T05:16:17.089Z,10.90
2018-06-05T05:18:46.285Z,7.30
2018-06-05T05:21:15.823Z,8.43
2018-06-05T05:23:44.688Z,8.55
2018-06-05T05:26:13.656Z,11.57
2018-06-05T05:28:43.127Z,8.25
2018-06-05T05:31:12.179Z,7.85
2018-06-05T05:33:41.198Z,13.25
2018-06-05T05:36:10.376Z,6.60
2018-06-05T05:38:39.250Z,8.25
2018-06-05T05:41:08.216Z,8.85
2018-06-05T05:43:37.916Z,8.60
2018-06-05T05:46:07.024Z,7.42
2018-06-05T05:48:36.167Z,9.00
2018-06-05T05:51:05.212Z,5.92
2018-06-05T05:53:34.446Z,8.90
2018-06-05T05:56:03.352Z,8.58
2018-06-05T05:58:33.027Z,10.58
2018-06-05T06:01:01.917Z,7.58
2018-06-05T06:03:30.812Z,9.05
2018-06-05T06:05:59.676Z,8.25
2018-06-05T06:08:28.553Z,9.73
2018-06-05T06:10:57.477Z,10.23
2018-06-05T06:13:26.804Z,7.15
2018-06-05T06:15:55.872Z,11.70
2018-06-05T06:18:24.841Z,10.28
2018-06-05T06:20:54.230Z,7.70
2018-06-05T06:23:23.211Z,8.48
2018-06-05T06:25:52.292Z,8.10
2018-06-05T06:28:21.639Z,7.53
2018-06-05T06:30:50.720Z,7.75
2018-06-05T06:33:19.854Z,12.78
2018-06-05T06:35:48.917Z,8.30
2018-06-05T06:38:17.916Z,14.70
2018-06-05T06:40:46.796Z,12.65
2018-06-05T06:43:15.743Z,15.75
2018-06-05T06:45:44.898Z,13.03
2018-06-05T06:54:58.651Z,9.20
2018-06-05T06:57:27.725Z,9.28
2018-06-05T06:59:56.862Z,12.75
2018-06-05T07:02:26.226Z,11.63
2018-06-05T07:04:55.273Z,8.73
2018-06-05T07:07:24.231Z,12.43
2018-06-05T07:09:53.512Z,11.90
2018-06-05T07:12:22.470Z,10.30
2018-06-05T07:14:51.558Z,10.45
2018-06-05T07:17:20.691Z,10.25
2018-06-05T07:19:49.734Z,9.85
2018-06-05T07:22:18.866Z,9.85
2018-06-05T07:24:47.984Z,11.10
2018-06-05T07:27:17.039Z,11.35
2018-06-05T07:29:46.107Z,10.50
2018-06-05T07:32:16.060Z,13.62
2018-06-05T07:34:45.077Z,11.73
2018-06-05T07:37:14.177Z,9.88
2018-06-05T07:39:43.822Z,10.82
2018-06-05T07:42:12.700Z,11.43
2018-06-05T07:44:41.813Z,10.40
2018-06-05T07:47:11.102Z,9.90
2018-06-05T07:49:40.096Z,10.45
2018-06-05T07:52:09.199Z,11.90
2018-06-05T07:54:38.387Z,10.88
2018-06-05T07:57:07.369Z,11.60
2018-06-05T07:59:36.418Z,10.43
2018-06-05T08:02:05.654Z,10.78
2018-06-05T08:04:34.598Z,10.35
2018-06-05T08:07:03.758Z,10.30
2018-06-05T08:09:32.911Z,11.90
2018-06-05T08:12:01.940Z,9.33
2018-06-05T08:14:31.016Z,11.08
2018-06-05T08:17:00.605Z,12.55
2018-06-05T08:19:29.684Z,9.68
2018-06-05T08:21:58.676Z,11.35
2018-06-05T08:24:27.801Z,12.03
2018-06-05T08:26:56.915Z,10.60
2018-06-05T08:29:26.005Z,24.50
2018-06-05T08:31:55.154Z,13.35
2018-06-05T08:34:24.120Z,7.97
2018-06-05T08:36:53.267Z,19.75
2018-06-05T08:39:22.877Z,12.18
2018-06-05T08:41:51.841Z,9.03
2018-06-05T08:44:20.850Z,9.98
2018-06-05T08:46:50.140Z,11.48
2018-06-05T08:49:19.278Z,8.60
2018-06-05T08:51:48.258Z,7.72
2018-06-05T08:54:17.519Z,8.45
2018-06-05T08:56:46.513Z,8.35
2018-06-05T08:59:15.420Z,9.05
2018-06-05T09:01:44.483Z,8.28
2018-06-05T09:04:13.487Z,7.05
2018-06-05T09:06:42.742Z,6.42
2018-06-05T09:09:11.925Z,6.30
2018-06-05T09:11:41.005Z,7.42
2018-06-05T09:14:10.076Z,6.95
2018-06-05T09:16:39.146Z,7.37
2018-06-05T09:19:08.299Z,8.35
2018-06-05T09:21:37.307Z,6.50
2018-06-05T09:24:06.488Z,7.22
2018-06-05T09:26:35.460Z,6.20
2018-06-05T09:29:04.404Z,9.20
2018-06-05T09:31:33.516Z,7.25
2018-06-05T09:34:02.585Z,10.48
2018-06-05T09:36:31.608Z,7.08
2018-06-05T09:39:00.856Z,5.50
2018-06-05T09:41:29.858Z,5.42
2018-06-05T09:43:58.946Z,5.75
2018-06-05T09:46:28.495Z,6.67
2018-06-05T09:48:57.527Z,6.15
2018-06-05T09:51:26.624Z,7.60
2018-06-05T09:53:56.062Z,8.08
2018-06-05T09:56:25.076Z,8.70
2018-06-05T09:58:54.048Z,6.85
2018-06-05T10:01:23.148Z,5.70
2018-06-05T10:03:52.077Z,5.80
2018-06-05T10:06:20.953Z,8.13
2018-06-05T10:08:50.394Z,4.67
2018-06-05T10:11:20.465Z,5.90
2018-06-05T10:13:49.514Z,5.28
2018-06-05T10:16:18.682Z,6.85
2018-06-05T10:18:47.734Z,7.67
2018-06-05T10:21:16.710Z,5.80
2018-06-05T10:23:45.740Z,8.38
2018-06-05T10:26:14.772Z,5.42
2018-06-05T10:28:43.846Z,5.75
2018-06-05T10:31:13.061Z,6.40
2018-06-05T10:33:42.006Z,5.08
2018-06-05T10:36:11.184Z,7.72
2018-06-05T10:38:40.729Z,9.70
2018-06-05T10:41:09.773Z,15.35
2018-06-05T10:43:38.870Z,7.87
2018-06-05T10:46:07.996Z,6.58
2018-06-05T10:48:37.067Z,5.62
2018-06-05T10:51:06.168Z,8.68
2018-06-05T10:53:35.730Z,6.55
2018-06-05T10:56:04.733Z,9.78
2018-06-05T10:58:33.843Z,8.23
2018-06-05T11:01:02.882Z,5.67
2018-06-05T11:03:32.006Z,7.28
2018-06-05T11:06:01.111Z,5.30
2018-06-05T11:08:30.222Z,5.90
2018-06-05T11:10:59.215Z,5.15
2018-06-05T11:13:28.133Z,6.22
2018-06-05T11:15:57.568Z,7.65
2018-06-05T11:18:26.556Z,7.58
2018-06-05T11:20:55.565Z,8.70
2018-06-05T11:23:24.828Z,5.10
2018-06-05T11:25:53.952Z,4.67
2018-06-05T11:28:23.010Z,8.48
2018-06-05T11:30:52.328Z,5.22
2018-06-05T11:33:21.265Z,4.83
2018-06-05T11:35:50.410Z,8.03
2018-06-05T11:38:19.825Z,8.03
2018-06-05T11:40:48.868Z,6.83
2018-06-05T11:43:17.914Z,7.45
2018-06-05T11:45:47.042Z,6.95
2018-06-05T11:48:16.185Z,4.62
2018-06-05T11:50:45.036Z,8.10
2018-06-05T11:53:14.150Z,4.67
2018-06-05T11:55:43.174Z,6.25
2018-06-05T11:58:12.252Z,5.10
2018-06-05T12:00:41.393Z,4.90
2018-06-05T12:03:10.389Z,4.85
2018-06-05T12:05:39.443Z,4.55
2018-06-05T12:08:09.110Z,7.17
2018-06-05T12:10:38.001Z,4.97
2018-06-05T12:13:07.063Z,7.92
2018-06-05T12:15:36.600Z,4.80
2018-06-05T12:18:05.661Z,3.87
2018-06-05T12:20:34.726Z,6.97
2018-06-05T12:23:05.128Z,8.28
2018-06-05T12:25:34.181Z,4.83
2018-06-05T12:28:03.191Z,4.65
2018-06-05T12:30:32.314Z,7.12
2018-06-05T12:33:01.455Z,5.08
2018-06-05T12:35:30.504Z,6.75
2018-06-05T12:37:59.566Z,5.55
2018-06-05T12:40:28.691Z,6.03
2018-06-05T12:42:57.661Z,3.95
2018-06-05T12:45:26.950Z,4.95
2018-06-05T12:47:56.016Z,5.08
2018-06-05T12:50:25.041Z,5.45
2018-06-05T12:52:54.281Z,5.65
2018-06-05T12:55:23.424Z,4.97
2018-06-05T12:57:52.529Z,6.22
2018-06-05T13:00:21.914Z,5.42
2018-06-05T13:02:50.853Z,5.67
2018-06-05T13:05:19.807Z,5.83
2018-06-05T13:07:49.188Z,4.85
2018-06-05T13:10:18.125Z,5.00
2018-06-05T13:12:47.258Z,7.33
2018-06-05T13:15:16.352Z,5.62
2018-06-05T13:17:45.397Z,6.05
2018-06-05T13:20:14.237Z,5.40
2018-06-05T13:23:46.422Z,6.08
2018-06-05T13:26:15.362Z,5.12
2018-06-05T13:28:44.377Z,6.35
2018-06-05T13:31:13.412Z,8.30
2018-06-05T13:33:42.477Z,5.40
2018-06-05T13:36:11.564Z,5.15
2018-06-05T13:38:40.696Z,4.60
2018-06-05T13:41:09.740Z,5.30
2018-06-05T13:43:38.916Z,7.83
2018-06-05T13:46:08.277Z,5.22
2018-06-05T13:48:37.241Z,5.10
2018-06-05T13:51:06.440Z,8.75
2018-06-05T13:53:35.793Z,5.35
2018-06-05T13:56:04.932Z,4.87
2018-06-05T13:58:33.988Z,5.03
2018-06-05T14:01:03.101Z,5.08
2018-06-05T14:03:32.171Z,5.72
2018-06-05T14:06:01.337Z,7.67
2018-06-05T14:08:30.428Z,8.35
2018-06-05T14:10:59.500Z,8.20
2018-06-05T14:13:28.496Z,6.95
2018-06-05T14:15:57.754Z,9.18
2018-06-05T14:18:26.664Z,8.50
2018-06-05T14:20:55.830Z,9.03
2018-06-05T14:23:25.030Z,6.65
2018-06-05T14:25:54.060Z,7.58
2018-06-05T14:28:23.191Z,6.90
2018-06-05T14:30:52.553Z,7.37
2018-06-05T14:33:21.598Z,6.03
2018-06-05T14:35:50.618Z,7.72
2018-06-05T14:38:19.704Z,9.65
2018-06-05T14:40:48.719Z,6.70
2018-06-05T14:43:17.589Z,6.45
2018-06-05T14:45:46.906Z,9.90
2018-06-05T14:48:16.072Z,5.50
2018-06-05T14:50:45.160Z,5.60
2018-06-05T14:53:14.366Z,8.83
2018-06-05T14:55:43.556Z,5.65
2018-06-05T14:58:12.602Z,13.28
2018-06-05T15:00:42.283Z,13.88
2018-06-05T15:03:11.239Z,11.83
2018-06-05T15:05:40.423Z,11.38
2018-06-05T15:08:09.751Z,14.53
2018-06-05T15:10:38.602Z,9.28
2018-06-05T15:13:07.606Z,7.55
2018-06-05T15:15:37.032Z,10.60
2018-06-05T15:18:06.158Z,11.15
2018-06-05T15:20:34.951Z,11.80
2018-06-05T15:23:04.011Z,13.30
2018-06-05T15:25:33.161Z,8.55
2018-06-05T15:28:02.241Z,9.48
2018-06-05T15:30:31.598Z,16.00
2018-06-05T15:33:00.506Z,16.65
2018-06-05T15:35:29.432Z,10.78
2018-06-05T15:37:59.057Z,9.30
2018-06-05T15:40:28.039Z,11.03
2018-06-05T15:42:57.137Z,14.73
2018-06-05T15:45:26.506Z,10.13
2018-06-05T15:47:55.614Z,15.05
2018-06-05T15:50:24.563Z,10.08
2018-06-05T15:52:54.043Z,10.93
2018-06-05T15:55:23.128Z,10.45
2018-06-05T15:57:52.025Z,10.25
2018-06-05T16:00:21.118Z,7.28
2018-06-05T16:02:50.154Z,13.90
2018-06-05T16:05:19.326Z,15.60
2018-06-05T16:07:48.442Z,20.10
2018-06-05T16:10:17.663Z,12.68
2018-06-05T16:12:46.856Z,14.35
2018-06-05T16:15:16.480Z,14.53
2018-06-05T16:17:45.424Z,13.50
2018-06-05T16:20:14.592Z,12.47
2018-06-05T16:22:44.172Z,17.25
2018-06-05T16:25:13.129Z,16.32
2018-06-05T16:27:42.287Z,17.52
2018-06-05T16:30:11.654Z,13.43
2018-06-05T16:32:40.721Z,9.93
2018-06-05T16:35:09.730Z,15.10
2018-06-05T16:37:39.168Z,17.45
2018-06-05T16:40:08.140Z,12.15
2018-06-05T16:42:37.189Z,14.55
2018-06-05T16:45:06.285Z,8.25
2018-06-05T16:47:35.463Z,12.93
2018-06-05T16:50:04.480Z,11.10
2018-06-05T16:52:33.494Z,12.15
2018-06-05T16:55:02.412Z,10.55
2018-06-05T16:57:31.247Z,11.33
2018-06-05T17:00:00.308Z,12.33
2018-06-05T17:02:29.293Z,15.53
2018-06-05T17:04:58.194Z,10.72
2018-06-05T17:07:27.637Z,14.40
2018-06-05T17:09:56.581Z,9.88
2018-06-05T17:12:25.694Z,16.10
2018-06-05T17:14:55.130Z,16.95
2018-06-05T17:17:24.042Z,13.30
2018-06-05T17:19:53.031Z,12.95
2018-06-05T17:22:22.622Z,9.53
2018-06-05T17:24:51.854Z,15.93
2018-06-05T17:27:20.932Z,18.73
2018-06-05T17:29:50.522Z,12.07
2018-06-05T17:32:19.454Z,10.72
2018-06-05T17:34:48.572Z,18.70
2018-06-05T17:37:17.994Z,15.05
2018-06-05T17:39:47.027Z,11.05
2018-06-05T17:42:15.968Z,12.98
2018-06-05T17:44:45.513Z,13.70
2018-06-05T17:47:14.480Z,12.50
2018-06-05T17:49:43.448Z,10.23
2018-06-05T17:52:12.955Z,16.95
2018-06-05T17:54:41.864Z,11.78
2018-06-05T17:57:10.793Z,18.25
2018-06-05T17:59:39.911Z,11.85
2018-06-05T18:02:08.980Z,13.45
2018-06-05T18:04:38.131Z,14.83
2018-06-05T18:07:07.499Z,12.98
2018-06-05T18:09:36.480Z,11.60
2018-06-05T18:12:05.599Z,11.70
2018-06-05T18:14:35.008Z,11.18
2018-06-05T18:17:03.940Z,15.13
2018-06-05T18:19:33.032Z,14.58
2018-06-05T18:22:02.467Z,13.85
2018-06-05T18:24:31.448Z,11.45
2018-06-05T18:27:00.404Z,13.58
2018-06-05T18:29:29.350Z,14.10
2018-06-05T18:31:58.248Z,13.50
2018-06-05T18:34:27.237Z,11.50
2018-06-05T18:36:56.634Z,12.65
2018-06-05T18:39:25.601Z,16.85
2018-06-05T18:41:54.740Z,71.55
2018-06-05T18:44:23.800Z,61.45
2018-06-05T18:46:52.972Z,75.78
2018-06-05T18:49:21.864Z,27.22
2018-06-05T18:51:51.230Z,18.55
2018-06-05T18:54:20.122Z,12.93
2018-06-05T18:56:49.236Z,13.53
2018-06-05T18:59:18.764Z,18.37
2018-06-05T19:01:47.759Z,13.35
2018-06-05T19:04:16.726Z,13.03
2018-06-05T19:06:45.852Z,13.78
2018-06-05T19:09:14.878Z,13.32
2018-06-05T19:11:44.044Z,15.53
2018-06-05T19:14:13.483Z,19.42
2018-06-05T19:16:42.587Z,14.10
2018-06-05T19:19:11.736Z,17.25
2018-06-05T19:21:40.823Z,18.62
2018-06-05T19:24:09.843Z,17.27
2018-06-05T19:26:38.853Z,16.85
2018-06-05T19:29:08.640Z,19.73
2018-06-05T19:31:37.564Z,21.20
2018-06-05T19:34:06.612Z,16.55
2018-06-05T19:36:35.583Z,18.17
2018-06-05T19:39:06.153Z,13.60
2018-06-05T19:41:35.262Z,16.97
2018-06-05T19:44:04.388Z,14.47
2018-06-05T19:46:33.310Z,18.30
2018-06-05T19:49:02.228Z,17.43
2018-06-05T19:51:31.673Z,13.73
2018-06-05T19:54:00.638Z,12.80
2018-06-05T19:56:30.090Z,13.22
2018-06-05T19:58:59.289Z,14.50
2018-06-05T20:01:28.365Z,12.23
2018-06-05T20:03:57.442Z,15.17
2018-06-05T20:06:26.847Z,11.47
2018-06-05T20:08:55.701Z,13.60
2018-06-05T20:11:24.668Z,12.43
2018-06-05T20:13:53.735Z,12.40
2018-06-05T20:16:22.751Z,12.90
2018-06-05T20:18:51.728Z,11.93
2018-06-05T20:21:20.602Z,12.40
2018-06-05T20:23:49.493Z,14.37
2018-06-05T20:26:18.507Z,13.47
2018-06-05T20:28:47.870Z,15.03
2018-06-05T20:31:16.917Z,11.87
2018-06-05T20:33:46.031Z,12.00
2018-06-05T20:36:15.114Z,12.87
2018-06-05T20:38:44.222Z,12.07
2018-06-05T20:41:13.339Z,13.07
2018-06-05T20:43:42.545Z,13.67
2018-06-05T20:46:11.370Z,13.60
2018-06-05T20:48:40.458Z,16.53
2018-06-05T20:51:09.738Z,12.07
2018-06-05T20:53:38.835Z,12.43
2018-06-05T20:56:07.871Z,12.93
2018-06-05T20:58:37.053Z,13.60
2018-06-05T21:01:06.044Z,11.93
2018-06-05T21:03:35.044Z,13.30
2018-06-05T21:06:04.025Z,13.73
2018-06-05T21:08:33.044Z,15.20
2018-06-05T21:11:02.057Z,15.30
2018-06-05T21:13:31.049Z,15.20
2018-06-05T21:15:59.962Z,13.60
2018-06-05T21:18:29.046Z,15.03
2018-06-05T21:20:58.702Z,13.87
2018-06-05T21:23:27.719Z,17.33
2018-06-05T21:25:56.754Z,15.57
2018-06-05T21:28:25.919Z,15.30
2018-06-05T21:30:54.901Z,13.27
2018-06-05T21:33:23.745Z,12.73
2018-06-05T21:35:53.249Z,13.10
2018-06-05T21:38:22.224Z,17.00
2018-06-05T21:40:51.229Z,16.47
2018-06-05T21:43:20.270Z,14.40
2018-06-05T21:45:49.235Z,13.80
2018-06-05T21:48:18.132Z,19.67
2018-06-05T21:50:47.189Z,23.10
2018-06-05T21:53:16.107Z,21.67
2018-06-05T21:55:44.925Z,24.63
2018-06-05T21:58:14.460Z,16.20
2018-06-05T22:00:43.498Z,19.60
2018-06-05T22:03:12.519Z,19.70
2018-06-05T22:05:41.576Z,16.27
2018-06-05T22:08:10.533Z,19.43
2018-06-05T22:10:39.558Z,16.27
2018-06-05T22:13:08.761Z,16.93
2018-06-05T22:15:37.789Z,16.03
2018-06-05T22:18:06.963Z,16.43
2018-06-05T22:20:35.953Z,17.13
2018-06-05T22:23:04.978Z,15.57
2018-06-05T22:25:33.934Z,19.77
2018-06-05T22:28:03.330Z,18.83
2018-06-05T22:30:32.284Z,18.43
2018-06-05T22:33:01.159Z,16.33
2018-06-05T22:35:30.220Z,17.90
2018-06-05T22:37:59.225Z,29.47
2018-06-05T22:40:28.436Z,16.60
2018-06-05T22:42:57.379Z,15.67
2018-06-05T22:45:26.490Z,15.00
2018-06-05T22:47:55.578Z,15.27
2018-06-05T22:50:24.719Z,16.63
2018-06-05T22:52:53.802Z,15.97
2018-06-05T22:55:22.797Z,16.10
2018-06-05T22:57:52.093Z,16.03
2018-06-05T23:00:27.898Z,18.17
2018-06-05T23:02:56.956Z,18.13
2018-06-05T23:05:25.946Z,17.27
2018-06-05T23:07:54.938Z,15.03
2018-06-05T23:10:24.504Z,16.33
2018-06-05T23:12:53.436Z,18.67
2018-06-05T23:15:22.378Z,16.13
2018-06-05T23:17:51.448Z,15.47
2018-06-05T23:20:20.568Z,16.33
2018-06-05T23:22:49.599Z,15.20
2018-06-05T23:25:19.067Z,15.93
2018-06-05T23:27:48.100Z,18.00
2018-06-05T23:30:17.205Z,14.93
2018-06-05T23:34:15.861Z,15.37
2018-06-05T23:36:44.898Z,14.33
2018-06-05T23:39:13.906Z,14.47
2018-06-05T23:41:43.036Z,16.70
2018-06-05T23:44:12.095Z,15.80
2018-06-05T23:46:41.128Z,17.93
2018-06-05T23:49:10.166Z,15.97
2018-06-05T23:51:39.126Z,17.07
2018-06-05T23:54:07.925Z,16.63
2018-06-05T23:56:37.032Z,15.57
2018-06-05T23:59:05.958Z,15.87
